sensor_id;sensor_type;location;lat;lon;timestamp;temperature;humidity
27224;DHT22;14965;50.660;13.226;2022-08-20T00:01:47;17.40;99.90
27224;DHT22;14965;50.660;13.226;2022-08-20T00:04:13;17.40;99.90
27224;DHT22;14965;50.660;13.226;2022-08-20T00:06:41;17.30;99.90
27224;DHT22;14965;50.660;13.226;2022-08-20T00:09:07;17.30;99.90
27224;DHT22;14965;50.660;13.226;2022-08-20T00:11:35;17.30;99.90
27224;DHT22;14965;50.660;13.226;2022-08-20T00:14:04;17.30;99.90
27224;DHT22;14965;50.660;13.226;2022-08-20T00:16:33;17.30;99.90
27224;DHT22;14965;50.660;13.226;2022-08-20T00:19:02;17.40;99.90
27224;DHT22;14965;50.660;13.226;2022-08-20T00:21:30;17.40;99.90
27224;DHT22;14965;50.660;13.226;2022-08-20T00:23:57;17.40;99.90
27224;DHT22;14965;50.660;13.226;2022-08-20T00:26:24;17.40;99.90
27224;DHT22;14965;50.660;13.226;2022-08-20T00:28:52;17.40;99.90
27224;DHT22;14965;50.660;13.226;2022-08-20T00:31:20;17.40;99.90
27224;DHT22;14965;50.660;13.226;2022-08-20T00:33:48;17.40;99.90
27224;DHT22;14965;50.660;13.226;2022-08-20T00:36:16;17.40;99.90
27224;DHT22;14965;50.660;13.226;2022-08-20T00:38:44;17.40;99.90
27224;DHT22;14965;50.660;13.226;2022-08-20T00:41:13;17.30;99.90
27224;DHT22;14965;50.660;13.226;2022-08-20T00:43:43;17.30;99.90
27224;DHT22;14965;50.660;13.226;2022-08-20T00:46:15;17.30;99.90
27224;DHT22;14965;50.660;13.226;2022-08-20T00:48:47;17.30;99.90
27224;DHT22;14965;50.660;13.226;2022-08-20T00:51:22;17.30;99.90
27224;DHT22;14965;50.660;13.226;2022-08-20T00:53:51;17.30;99.90
27224;DHT22;14965;50.660;13.226;2022-08-20T00:56:18;17.30;99.90
27224;DHT22;14965;50.660;13.226;2022-08-20T00:58:45;17.20;99.90
27224;DHT22;14965;50.660;13.226;2022-08-20T01:01:14;17.20;99.90
27224;DHT22;14965;50.660;13.226;2022-08-20T01:03:40;17.20;99.90
27224;DHT22;14965;50.660;13.226;2022-08-20T01:06:06;17.20;99.90
27224;DHT22;14965;50.660;13.226;2022-08-20T01:08:32;17.30;99.90
27224;DHT22;14965;50.660;13.226;2022-08-20T01:10:59;17.20;99.90
27224;DHT22;14965;50.660;13.226;2022-08-20T01:13:25;17.20;99.90
27224;DHT22;14965;50.660;13.226;2022-08-20T01:15:53;17.20;99.90
27224;DHT22;14965;50.660;13.226;2022-08-20T01:18:27;17.20;99.90
27224;DHT22;14965;50.660;13.226;2022-08-20T01:20:56;17.20;99.90
27224;DHT22;14965;50.660;13.226;2022-08-20T01:23:30;17.10;99.90
27224;DHT22;14965;50.660;13.226;2022-08-20T01:26:09;17.00;99.90
27224;DHT22;14965;50.660;13.226;2022-08-20T01:28:41;16.90;99.90
27224;DHT22;14965;50.660;13.226;2022-08-20T01:31:11;16.90;99.90
27224;DHT22;14965;50.660;13.226;2022-08-20T01:33:39;16.90;99.90
27224;DHT22;14965;50.660;13.226;2022-08-20T01:36:06;16.90;99.90
27224;DHT22;14965;50.660;13.226;2022-08-20T01:38:34;16.80;99.90
27224;DHT22;14965;50.660;13.226;2022-08-20T01:41:23;16.80;99.90
27224;DHT22;14965;50.660;13.226;2022-08-20T01:43:58;16.80;99.90
27224;DHT22;14965;50.660;13.226;2022-08-20T01:46:25;16.80;99.90
27224;DHT22;14965;50.660;13.226;2022-08-20T01:48:56;16.80;99.90
27224;DHT22;14965;50.660;13.226;2022-08-20T01:51:26;16.80;99.90
27224;DHT22;14965;50.660;13.226;2022-08-20T01:53:56;16.80;99.90
27224;DHT22;14965;50.660;13.226;2022-08-20T01:56:26;16.90;99.90
27224;DHT22;14965;50.660;13.226;2022-08-20T01:58:55;16.80;99.90
27224;DHT22;14965;50.660;13.226;2022-08-20T02:01:27;16.90;99.90
27224;DHT22;14965;50.660;13.226;2022-08-20T02:03:55;16.80;99.90
27224;DHT22;14965;50.660;13.226;2022-08-20T02:06:22;16.80;99.90
27224;DHT22;14965;50.660;13.226;2022-08-20T02:08:50;16.80;99.90
27224;DHT22;14965;50.660;13.226;2022-08-20T02:11:17;16.80;99.90
27224;DHT22;14965;50.660;13.226;2022-08-20T02:13:45;16.80;99.90
27224;DHT22;14965;50.660;13.226;2022-08-20T02:16:10;16.80;99.90
27224;DHT22;14965;50.660;13.226;2022-08-20T02:18:36;16.80;99.90
27224;DHT22;14965;50.660;13.226;2022-08-20T02:21:02;16.80;99.90
27224;DHT22;14965;50.660;13.226;2022-08-20T02:23:28;16.80;99.90
27224;DHT22;14965;50.660;13.226;2022-08-20T02:25:54;16.80;99.90
27224;DHT22;14965;50.660;13.226;2022-08-20T02:28:21;16.80;99.90
27224;DHT22;14965;50.660;13.226;2022-08-20T02:30:50;16.90;99.90
27224;DHT22;14965;50.660;13.226;2022-08-20T02:33:21;16.90;99.90
27224;DHT22;14965;50.660;13.226;2022-08-20T02:35:48;16.90;99.90
27224;DHT22;14965;50.660;13.226;2022-08-20T02:38:14;16.90;99.90
27224;DHT22;14965;50.660;13.226;2022-08-20T02:40:42;16.80;99.90
27224;DHT22;14965;50.660;13.226;2022-08-20T02:43:10;16.80;99.90
27224;DHT22;14965;50.660;13.226;2022-08-20T02:45:36;16.80;99.90
27224;DHT22;14965;50.660;13.226;2022-08-20T02:48:04;16.80;99.90
27224;DHT22;14965;50.660;13.226;2022-08-20T02:50:30;16.70;99.90
27224;DHT22;14965;50.660;13.226;2022-08-20T02:52:56;16.70;99.90
27224;DHT22;14965;50.660;13.226;2022-08-20T02:55:22;16.70;99.90
27224;DHT22;14965;50.660;13.226;2022-08-20T02:57:48;16.70;99.90
27224;DHT22;14965;50.660;13.226;2022-08-20T03:00:17;16.70;99.90
27224;DHT22;14965;50.660;13.226;2022-08-20T03:02:44;16.70;99.90
27224;DHT22;14965;50.660;13.226;2022-08-20T03:05:12;16.70;99.90
27224;DHT22;14965;50.660;13.226;2022-08-20T03:07:42;16.70;99.90
27224;DHT22;14965;50.660;13.226;2022-08-20T03:10:09;16.70;99.90
27224;DHT22;14965;50.660;13.226;2022-08-20T03:12:35;16.70;99.90
27224;DHT22;14965;50.660;13.226;2022-08-20T03:15:01;16.70;99.90
27224;DHT22;14965;50.660;13.226;2022-08-20T03:17:28;16.80;99.90
27224;DHT22;14965;50.660;13.226;2022-08-20T03:19:54;16.70;99.90
27224;DHT22;14965;50.660;13.226;2022-08-20T03:22:21;16.80;99.90
27224;DHT22;14965;50.660;13.226;2022-08-20T03:24:48;16.80;99.90
27224;DHT22;14965;50.660;13.226;2022-08-20T03:27:14;16.70;99.90
27224;DHT22;14965;50.660;13.226;2022-08-20T03:29:39;16.70;99.90
27224;DHT22;14965;50.660;13.226;2022-08-20T03:32:05;16.70;99.90
27224;DHT22;14965;50.660;13.226;2022-08-20T03:34:31;16.70;99.90
27224;DHT22;14965;50.660;13.226;2022-08-20T03:36:57;16.60;99.90
27224;DHT22;14965;50.660;13.226;2022-08-20T03:39:24;16.70;99.90
27224;DHT22;14965;50.660;13.226;2022-08-20T03:41:50;16.70;99.90
27224;DHT22;14965;50.660;13.226;2022-08-20T03:44:16;16.60;99.90
27224;DHT22;14965;50.660;13.226;2022-08-20T03:46:42;16.70;99.90
27224;DHT22;14965;50.660;13.226;2022-08-20T03:49:08;16.70;99.90
27224;DHT22;14965;50.660;13.226;2022-08-20T03:51:34;16.60;99.90
27224;DHT22;14965;50.660;13.226;2022-08-20T03:54:00;16.60;99.90
27224;DHT22;14965;50.660;13.226;2022-08-20T03:56:27;16.60;99.90
27224;DHT22;14965;50.660;13.226;2022-08-20T03:58:53;16.60;99.90
27224;DHT22;14965;50.660;13.226;2022-08-20T04:01:19;16.50;99.90
27224;DHT22;14965;50.660;13.226;2022-08-20T04:03:45;16.50;99.90
27224;DHT22;14965;50.660;13.226;2022-08-20T04:06:11;16.60;99.90
27224;DHT22;14965;50.660;13.226;2022-08-20T04:08:38;16.60;99.90
27224;DHT22;14965;50.660;13.226;2022-08-20T04:11:04;16.50;99.90
27224;DHT22;14965;50.660;13.226;2022-08-20T04:13:32;16.50;99.90
27224;DHT22;14965;50.660;13.226;2022-08-20T04:16:00;16.50;99.90
27224;DHT22;14965;50.660;13.226;2022-08-20T04:18:27;16.50;99.90
27224;DHT22;14965;50.660;13.226;2022-08-20T04:20:53;16.50;99.90
27224;DHT22;14965;50.660;13.226;2022-08-20T04:23:20;16.50;99.90
27224;DHT22;14965;50.660;13.226;2022-08-20T04:25:47;16.50;99.90
27224;DHT22;14965;50.660;13.226;2022-08-20T04:28:16;16.40;99.90
27224;DHT22;14965;50.660;13.226;2022-08-20T04:30:45;16.40;99.90
27224;DHT22;14965;50.660;13.226;2022-08-20T04:33:11;16.40;99.90
27224;DHT22;14965;50.660;13.226;2022-08-20T04:35:37;16.40;99.90
27224;DHT22;14965;50.660;13.226;2022-08-20T04:38:04;16.40;99.90
27224;DHT22;14965;50.660;13.226;2022-08-20T04:40:33;16.40;99.90
27224;DHT22;14965;50.660;13.226;2022-08-20T04:43:00;16.30;99.90
27224;DHT22;14965;50.660;13.226;2022-08-20T04:45:26;16.30;99.90
27224;DHT22;14965;50.660;13.226;2022-08-20T04:47:53;16.20;99.90
27224;DHT22;14965;50.660;13.226;2022-08-20T04:50:19;16.20;99.90
27224;DHT22;14965;50.660;13.226;2022-08-20T04:52:46;16.20;99.90
27224;DHT22;14965;50.660;13.226;2022-08-20T04:55:12;16.20;99.90
27224;DHT22;14965;50.660;13.226;2022-08-20T04:57:37;16.10;99.90
27224;DHT22;14965;50.660;13.226;2022-08-20T05:00:05;16.10;99.90
27224;DHT22;14965;50.660;13.226;2022-08-20T05:02:32;16.10;99.90
27224;DHT22;14965;50.660;13.226;2022-08-20T05:05:02;16.10;99.90
27224;DHT22;14965;50.660;13.226;2022-08-20T05:07:29;16.10;99.90
27224;DHT22;14965;50.660;13.226;2022-08-20T05:09:54;16.10;99.90
27224;DHT22;14965;50.660;13.226;2022-08-20T05:12:20;16.00;99.90
27224;DHT22;14965;50.660;13.226;2022-08-20T05:14:46;15.90;99.90
27224;DHT22;14965;50.660;13.226;2022-08-20T05:17:12;15.80;99.90
27224;DHT22;14965;50.660;13.226;2022-08-20T05:19:40;15.90;99.90
27224;DHT22;14965;50.660;13.226;2022-08-20T05:22:08;15.90;99.90
27224;DHT22;14965;50.660;13.226;2022-08-20T05:24:34;15.90;99.90
27224;DHT22;14965;50.660;13.226;2022-08-20T05:27:00;15.90;99.90
27224;DHT22;14965;50.660;13.226;2022-08-20T05:29:26;15.90;99.90
27224;DHT22;14965;50.660;13.226;2022-08-20T05:31:52;15.90;99.90
27224;DHT22;14965;50.660;13.226;2022-08-20T05:34:18;15.80;99.90
27224;DHT22;14965;50.660;13.226;2022-08-20T05:36:46;15.80;99.90
27224;DHT22;14965;50.660;13.226;2022-08-20T05:39:15;15.80;99.90
27224;DHT22;14965;50.660;13.226;2022-08-20T05:41:42;15.80;99.90
27224;DHT22;14965;50.660;13.226;2022-08-20T05:44:08;15.80;99.90
27224;DHT22;14965;50.660;13.226;2022-08-20T05:46:36;15.80;99.90
27224;DHT22;14965;50.660;13.226;2022-08-20T05:49:02;15.70;99.90
27224;DHT22;14965;50.660;13.226;2022-08-20T05:51:29;15.80;99.90
27224;DHT22;14965;50.660;13.226;2022-08-20T05:53:55;15.80;99.90
27224;DHT22;14965;50.660;13.226;2022-08-20T05:56:23;15.70;99.90
27224;DHT22;14965;50.660;13.226;2022-08-20T05:58:49;15.70;99.90
27224;DHT22;14965;50.660;13.226;2022-08-20T06:01:14;15.60;99.90
27224;DHT22;14965;50.660;13.226;2022-08-20T06:03:40;15.60;99.90
27224;DHT22;14965;50.660;13.226;2022-08-20T06:06:06;15.70;99.90
27224;DHT22;14965;50.660;13.226;2022-08-20T06:08:32;15.70;99.90
27224;DHT22;14965;50.660;13.226;2022-08-20T06:10:58;15.80;99.90
27224;DHT22;14965;50.660;13.226;2022-08-20T06:13:26;15.80;99.90
27224;DHT22;14965;50.660;13.226;2022-08-20T06:15:52;15.80;99.90
27224;DHT22;14965;50.660;13.226;2022-08-20T06:18:18;15.80;99.90
27224;DHT22;14965;50.660;13.226;2022-08-20T06:20:43;15.80;99.90
27224;DHT22;14965;50.660;13.226;2022-08-20T06:23:09;15.80;99.90
27224;DHT22;14965;50.660;13.226;2022-08-20T06:25:35;15.80;99.90
27224;DHT22;14965;50.660;13.226;2022-08-20T06:28:03;15.90;99.90
27224;DHT22;14965;50.660;13.226;2022-08-20T06:30:31;15.80;99.90
27224;DHT22;14965;50.660;13.226;2022-08-20T06:32:57;15.90;99.90
27224;DHT22;14965;50.660;13.226;2022-08-20T06:35:23;15.90;99.90
27224;DHT22;14965;50.660;13.226;2022-08-20T06:37:49;15.80;99.90
27224;DHT22;14965;50.660;13.226;2022-08-20T06:40:20;15.90;99.90
27224;DHT22;14965;50.660;13.226;2022-08-20T06:42:48;15.90;99.90
27224;DHT22;14965;50.660;13.226;2022-08-20T06:45:15;16.00;99.90
27224;DHT22;14965;50.660;13.226;2022-08-20T06:47:45;16.00;99.90
27224;DHT22;14965;50.660;13.226;2022-08-20T06:50:15;16.10;99.90
27224;DHT22;14965;50.660;13.226;2022-08-20T06:52:44;16.10;99.90
27224;DHT22;14965;50.660;13.226;2022-08-20T06:55:11;16.20;99.90
27224;DHT22;14965;50.660;13.226;2022-08-20T06:57:38;16.20;99.90
27224;DHT22;14965;50.660;13.226;2022-08-20T07:00:07;16.30;99.90
27224;DHT22;14965;50.660;13.226;2022-08-20T07:02:35;16.30;99.90
27224;DHT22;14965;50.660;13.226;2022-08-20T07:05:03;16.30;99.90
27224;DHT22;14965;50.660;13.226;2022-08-20T07:07:32;16.40;99.90
27224;DHT22;14965;50.660;13.226;2022-08-20T07:09:59;16.50;99.90
27224;DHT22;14965;50.660;13.226;2022-08-20T07:12:26;16.40;99.90
27224;DHT22;14965;50.660;13.226;2022-08-20T07:14:52;16.40;99.90
27224;DHT22;14965;50.660;13.226;2022-08-20T07:17:18;16.30;99.90
27224;DHT22;14965;50.660;13.226;2022-08-20T07:19:44;16.30;99.90
27224;DHT22;14965;50.660;13.226;2022-08-20T07:22:11;16.20;99.90
27224;DHT22;14965;50.660;13.226;2022-08-20T07:24:37;16.20;99.90
27224;DHT22;14965;50.660;13.226;2022-08-20T07:27:03;16.10;99.90
27224;DHT22;14965;50.660;13.226;2022-08-20T07:29:29;16.10;99.90
27224;DHT22;14965;50.660;13.226;2022-08-20T07:31:56;16.10;99.90
27224;DHT22;14965;50.660;13.226;2022-08-20T07:34:22;16.10;99.90
27224;DHT22;14965;50.660;13.226;2022-08-20T07:36:48;16.10;99.90
27224;DHT22;14965;50.660;13.226;2022-08-20T07:39:15;16.20;99.90
27224;DHT22;14965;50.660;13.226;2022-08-20T07:41:41;16.20;99.90
27224;DHT22;14965;50.660;13.226;2022-08-20T07:44:07;16.30;99.90
27224;DHT22;14965;50.660;13.226;2022-08-20T07:46:35;16.30;99.90
27224;DHT22;14965;50.660;13.226;2022-08-20T07:49:02;16.30;99.90
27224;DHT22;14965;50.660;13.226;2022-08-20T07:51:30;16.30;99.90
27224;DHT22;14965;50.660;13.226;2022-08-20T07:53:56;16.30;99.90
27224;DHT22;14965;50.660;13.226;2022-08-20T07:56:23;16.30;99.90
27224;DHT22;14965;50.660;13.226;2022-08-20T07:58:50;16.30;99.90
27224;DHT22;14965;50.660;13.226;2022-08-20T08:01:20;16.30;99.90
27224;DHT22;14965;50.660;13.226;2022-08-20T08:03:48;16.20;99.90
27224;DHT22;14965;50.660;13.226;2022-08-20T08:06:14;16.20;99.90
27224;DHT22;14965;50.660;13.226;2022-08-20T08:08:41;16.20;99.90
27224;DHT22;14965;50.660;13.226;2022-08-20T08:11:07;16.20;99.90
27224;DHT22;14965;50.660;13.226;2022-08-20T08:13:38;16.20;99.90
27224;DHT22;14965;50.660;13.226;2022-08-20T08:16:07;16.20;99.90
27224;DHT22;14965;50.660;13.226;2022-08-20T08:18:36;16.20;99.90
27224;DHT22;14965;50.660;13.226;2022-08-20T08:21:07;16.30;99.90
27224;DHT22;14965;50.660;13.226;2022-08-20T08:23:36;16.30;99.90
27224;DHT22;14965;50.660;13.226;2022-08-20T08:26:02;16.40;99.90
27224;DHT22;14965;50.660;13.226;2022-08-20T08:28:28;16.40;99.90
27224;DHT22;14965;50.660;13.226;2022-08-20T08:30:55;16.40;99.90
27224;DHT22;14965;50.660;13.226;2022-08-20T08:33:24;16.50;99.90
27224;DHT22;14965;50.660;13.226;2022-08-20T08:35:51;16.50;99.90
27224;DHT22;14965;50.660;13.226;2022-08-20T08:38:18;16.60;99.90
27224;DHT22;14965;50.660;13.226;2022-08-20T08:40:44;16.60;99.90
27224;DHT22;14965;50.660;13.226;2022-08-20T08:43:11;16.70;99.90
27224;DHT22;14965;50.660;13.226;2022-08-20T08:45:40;16.70;99.90
27224;DHT22;14965;50.660;13.226;2022-08-20T08:48:11;16.80;99.90
27224;DHT22;14965;50.660;13.226;2022-08-20T08:50:41;16.80;99.90
27224;DHT22;14965;50.660;13.226;2022-08-20T08:53:17;16.80;99.90
27224;DHT22;14965;50.660;13.226;2022-08-20T08:55:47;16.90;99.90
27224;DHT22;14965;50.660;13.226;2022-08-20T08:58:15;17.00;99.90
27224;DHT22;14965;50.660;13.226;2022-08-20T09:00:41;17.10;99.90
27224;DHT22;14965;50.660;13.226;2022-08-20T09:03:10;17.20;99.90
27224;DHT22;14965;50.660;13.226;2022-08-20T09:05:46;17.40;99.90
27224;DHT22;14965;50.660;13.226;2022-08-20T09:08:17;17.50;99.90
27224;DHT22;14965;50.660;13.226;2022-08-20T09:10:48;17.50;99.90
27224;DHT22;14965;50.660;13.226;2022-08-20T09:13:14;17.60;99.90
27224;DHT22;14965;50.660;13.226;2022-08-20T09:15:41;17.70;99.90
27224;DHT22;14965;50.660;13.226;2022-08-20T09:18:06;17.80;99.90
27224;DHT22;14965;50.660;13.226;2022-08-20T09:20:35;17.80;99.90
27224;DHT22;14965;50.660;13.226;2022-08-20T09:23:01;17.80;99.90
27224;DHT22;14965;50.660;13.226;2022-08-20T09:25:29;17.80;99.90
27224;DHT22;14965;50.660;13.226;2022-08-20T09:27:55;17.70;99.90
27224;DHT22;14965;50.660;13.226;2022-08-20T09:30:21;17.60;99.90
27224;DHT22;14965;50.660;13.226;2022-08-20T09:32:48;17.60;99.90
27224;DHT22;14965;50.660;13.226;2022-08-20T09:35:14;17.50;99.90
27224;DHT22;14965;50.660;13.226;2022-08-20T09:37:41;17.40;99.90
27224;DHT22;14965;50.660;13.226;2022-08-20T09:40:08;17.40;99.90
27224;DHT22;14965;50.660;13.226;2022-08-20T09:42:36;17.40;99.90
27224;DHT22;14965;50.660;13.226;2022-08-20T09:45:04;17.40;99.90
27224;DHT22;14965;50.660;13.226;2022-08-20T09:47:30;17.40;99.90
27224;DHT22;14965;50.660;13.226;2022-08-20T09:49:56;17.30;99.90
27224;DHT22;14965;50.660;13.226;2022-08-20T09:52:24;17.30;99.90
27224;DHT22;14965;50.660;13.226;2022-08-20T09:54:55;17.30;99.90
27224;DHT22;14965;50.660;13.226;2022-08-20T09:57:24;17.30;99.90
27224;DHT22;14965;50.660;13.226;2022-08-20T09:59:53;17.30;99.90
27224;DHT22;14965;50.660;13.226;2022-08-20T10:02:22;17.30;99.90
27224;DHT22;14965;50.660;13.226;2022-08-20T10:04:48;17.30;99.90
27224;DHT22;14965;50.660;13.226;2022-08-20T10:07:14;17.30;99.90
27224;DHT22;14965;50.660;13.226;2022-08-20T10:09:40;17.30;99.90
27224;DHT22;14965;50.660;13.226;2022-08-20T10:12:07;17.30;99.90
27224;DHT22;14965;50.660;13.226;2022-08-20T10:14:33;17.30;99.90
27224;DHT22;14965;50.660;13.226;2022-08-20T10:17:01;17.30;99.90
27224;DHT22;14965;50.660;13.226;2022-08-20T10:19:28;17.30;99.90
27224;DHT22;14965;50.660;13.226;2022-08-20T10:21:56;17.20;99.90
27224;DHT22;14965;50.660;13.226;2022-08-20T10:24:23;17.30;99.90
27224;DHT22;14965;50.660;13.226;2022-08-20T10:26:52;17.30;99.90
27224;DHT22;14965;50.660;13.226;2022-08-20T10:29:21;17.40;99.90
27224;DHT22;14965;50.660;13.226;2022-08-20T10:31:47;17.40;99.90
27224;DHT22;14965;50.660;13.226;2022-08-20T10:34:12;17.50;99.90
27224;DHT22;14965;50.660;13.226;2022-08-20T10:36:40;17.50;99.90
27224;DHT22;14965;50.660;13.226;2022-08-20T10:39:07;17.50;99.90
27224;DHT22;14965;50.660;13.226;2022-08-20T10:41:33;17.50;99.90
27224;DHT22;14965;50.660;13.226;2022-08-20T10:43:59;17.60;99.90
27224;DHT22;14965;50.660;13.226;2022-08-20T10:46:26;17.70;99.90
27224;DHT22;14965;50.660;13.226;2022-08-20T10:48:52;17.80;99.90
27224;DHT22;14965;50.660;13.226;2022-08-20T10:51:18;17.90;99.90
27224;DHT22;14965;50.660;13.226;2022-08-20T10:53:46;17.90;99.90
27224;DHT22;14965;50.660;13.226;2022-08-20T10:56:12;18.00;99.90
27224;DHT22;14965;50.660;13.226;2022-08-20T10:58:38;18.00;99.90
27224;DHT22;14965;50.660;13.226;2022-08-20T11:01:04;18.00;99.90
27224;DHT22;14965;50.660;13.226;2022-08-20T11:03:31;17.90;99.90
27224;DHT22;14965;50.660;13.226;2022-08-20T11:05:57;18.00;99.90
27224;DHT22;14965;50.660;13.226;2022-08-20T11:08:23;18.00;99.90
27224;DHT22;14965;50.660;13.226;2022-08-20T11:10:49;18.10;99.90
27224;DHT22;14965;50.660;13.226;2022-08-20T11:13:15;18.20;99.90
27224;DHT22;14965;50.660;13.226;2022-08-20T11:15:41;18.20;99.90
27224;DHT22;14965;50.660;13.226;2022-08-20T11:18:09;18.20;99.90
27224;DHT22;14965;50.660;13.226;2022-08-20T11:20:36;18.20;99.90
27224;DHT22;14965;50.660;13.226;2022-08-20T11:23:02;18.10;99.90
27224;DHT22;14965;50.660;13.226;2022-08-20T11:25:29;18.10;99.90
27224;DHT22;14965;50.660;13.226;2022-08-20T11:27:57;18.10;99.90
27224;DHT22;14965;50.660;13.226;2022-08-20T11:30:26;18.10;99.90
27224;DHT22;14965;50.660;13.226;2022-08-20T11:32:54;18.10;99.90
27224;DHT22;14965;50.660;13.226;2022-08-20T11:35:22;18.10;99.90
27224;DHT22;14965;50.660;13.226;2022-08-20T11:37:50;18.10;99.90
27224;DHT22;14965;50.660;13.226;2022-08-20T11:40:17;18.10;99.90
27224;DHT22;14965;50.660;13.226;2022-08-20T11:42:44;18.10;99.90
27224;DHT22;14965;50.660;13.226;2022-08-20T11:45:10;18.10;99.90
27224;DHT22;14965;50.660;13.226;2022-08-20T11:47:36;18.00;99.90
27224;DHT22;14965;50.660;13.226;2022-08-20T11:50:05;17.90;99.90
27224;DHT22;14965;50.660;13.226;2022-08-20T11:52:33;17.90;99.90
27224;DHT22;14965;50.660;13.226;2022-08-20T11:55:03;17.80;99.90
27224;DHT22;14965;50.660;13.226;2022-08-20T11:57:33;17.80;99.90
27224;DHT22;14965;50.660;13.226;2022-08-20T12:00:04;17.80;99.90
27224;DHT22;14965;50.660;13.226;2022-08-20T12:02:32;17.80;99.90
27224;DHT22;14965;50.660;13.226;2022-08-20T12:04:58;17.90;99.90
27224;DHT22;14965;50.660;13.226;2022-08-20T12:07:24;17.90;99.90
27224;DHT22;14965;50.660;13.226;2022-08-20T12:09:51;18.00;99.90
27224;DHT22;14965;50.660;13.226;2022-08-20T12:12:20;18.00;99.90
27224;DHT22;14965;50.660;13.226;2022-08-20T12:14:47;18.00;99.90
27224;DHT22;14965;50.660;13.226;2022-08-20T12:17:16;17.80;99.90
27224;DHT22;14965;50.660;13.226;2022-08-20T12:19:44;17.90;99.90
27224;DHT22;14965;50.660;13.226;2022-08-20T12:22:10;17.90;99.90
27224;DHT22;14965;50.660;13.226;2022-08-20T12:24:36;17.90;99.90
27224;DHT22;14965;50.660;13.226;2022-08-20T12:27:10;17.90;99.90
27224;DHT22;14965;50.660;13.226;2022-08-20T12:29:39;17.80;99.90
27224;DHT22;14965;50.660;13.226;2022-08-20T12:32:06;17.90;99.90
27224;DHT22;14965;50.660;13.226;2022-08-20T12:34:32;17.90;99.90
27224;DHT22;14965;50.660;13.226;2022-08-20T12:36:59;18.00;99.90
27224;DHT22;14965;50.660;13.226;2022-08-20T12:39:26;18.00;99.90
27224;DHT22;14965;50.660;13.226;2022-08-20T12:41:52;18.20;99.90
27224;DHT22;14965;50.660;13.226;2022-08-20T12:44:17;18.20;99.90
27224;DHT22;14965;50.660;13.226;2022-08-20T12:46:45;18.20;99.90
27224;DHT22;14965;50.660;13.226;2022-08-20T12:49:12;18.30;99.90
27224;DHT22;14965;50.660;13.226;2022-08-20T12:51:37;18.30;99.90
27224;DHT22;14965;50.660;13.226;2022-08-20T12:54:03;18.30;99.90
27224;DHT22;14965;50.660;13.226;2022-08-20T12:56:29;18.20;99.90
27224;DHT22;14965;50.660;13.226;2022-08-20T12:58:55;18.30;99.90
27224;DHT22;14965;50.660;13.226;2022-08-20T13:01:21;18.40;99.90
27224;DHT22;14965;50.660;13.226;2022-08-20T13:03:48;18.50;99.90
27224;DHT22;14965;50.660;13.226;2022-08-20T13:06:14;18.50;99.90
27224;DHT22;14965;50.660;13.226;2022-08-20T13:08:39;18.50;99.90
27224;DHT22;14965;50.660;13.226;2022-08-20T13:11:05;18.40;99.90
27224;DHT22;14965;50.660;13.226;2022-08-20T13:13:31;18.30;99.90
27224;DHT22;14965;50.660;13.226;2022-08-20T13:15:57;18.30;99.90
27224;DHT22;14965;50.660;13.226;2022-08-20T13:18:23;18.30;99.90
27224;DHT22;14965;50.660;13.226;2022-08-20T13:20:50;18.40;99.90
27224;DHT22;14965;50.660;13.226;2022-08-20T13:23:16;18.40;99.90
27224;DHT22;14965;50.660;13.226;2022-08-20T13:25:42;18.40;99.90
27224;DHT22;14965;50.660;13.226;2022-08-20T13:28:08;18.40;99.90
27224;DHT22;14965;50.660;13.226;2022-08-20T13:30:34;18.40;99.90
27224;DHT22;14965;50.660;13.226;2022-08-20T13:33:01;18.50;99.90
27224;DHT22;14965;50.660;13.226;2022-08-20T13:35:28;18.50;99.90
27224;DHT22;14965;50.660;13.226;2022-08-20T13:37:55;18.50;99.90
27224;DHT22;14965;50.660;13.226;2022-08-20T13:40:21;18.40;99.90
27224;DHT22;14965;50.660;13.226;2022-08-20T13:42:47;18.30;99.90
27224;DHT22;14965;50.660;13.226;2022-08-20T13:45:13;18.20;99.90
27224;DHT22;14965;50.660;13.226;2022-08-20T13:47:40;18.20;99.90
27224;DHT22;14965;50.660;13.226;2022-08-20T13:50:09;18.20;99.90
27224;DHT22;14965;50.660;13.226;2022-08-20T13:52:37;18.10;99.90
27224;DHT22;14965;50.660;13.226;2022-08-20T13:55:06;18.00;99.90
27224;DHT22;14965;50.660;13.226;2022-08-20T13:57:34;17.90;99.90
27224;DHT22;14965;50.660;13.226;2022-08-20T14:00:00;17.90;99.90
27224;DHT22;14965;50.660;13.226;2022-08-20T14:02:30;17.80;99.90
27224;DHT22;14965;50.660;13.226;2022-08-20T14:04:55;17.80;99.90
27224;DHT22;14965;50.660;13.226;2022-08-20T14:07:23;17.80;99.90
27224;DHT22;14965;50.660;13.226;2022-08-20T14:09:54;17.70;99.90
27224;DHT22;14965;50.660;13.226;2022-08-20T14:12:23;17.70;99.90
27224;DHT22;14965;50.660;13.226;2022-08-20T14:14:51;17.70;99.90
27224;DHT22;14965;50.660;13.226;2022-08-20T14:17:19;17.70;99.90
27224;DHT22;14965;50.660;13.226;2022-08-20T14:19:48;17.70;99.90
27224;DHT22;14965;50.660;13.226;2022-08-20T14:22:15;17.70;99.90
27224;DHT22;14965;50.660;13.226;2022-08-20T14:24:42;17.70;99.90
27224;DHT22;14965;50.660;13.226;2022-08-20T14:27:09;17.70;99.90
27224;DHT22;14965;50.660;13.226;2022-08-20T14:29:38;17.70;99.90
27224;DHT22;14965;50.660;13.226;2022-08-20T14:32:06;17.70;99.90
27224;DHT22;14965;50.660;13.226;2022-08-20T14:34:32;17.60;99.90
27224;DHT22;14965;50.660;13.226;2022-08-20T14:37:08;17.60;99.90
27224;DHT22;14965;50.660;13.226;2022-08-20T14:39:39;17.50;99.90
27224;DHT22;14965;50.660;13.226;2022-08-20T14:42:05;17.50;99.90
27224;DHT22;14965;50.660;13.226;2022-08-20T14:44:31;17.50;99.90
27224;DHT22;14965;50.660;13.226;2022-08-20T14:47:09;17.50;99.90
27224;DHT22;14965;50.660;13.226;2022-08-20T14:49:36;17.50;99.90
27224;DHT22;14965;50.660;13.226;2022-08-20T14:52:02;17.40;99.90
27224;DHT22;14965;50.660;13.226;2022-08-20T14:54:28;17.40;99.90
27224;DHT22;14965;50.660;13.226;2022-08-20T14:56:56;17.40;99.90
27224;DHT22;14965;50.660;13.226;2022-08-20T14:59:22;17.40;99.90
27224;DHT22;14965;50.660;13.226;2022-08-20T15:01:48;17.40;99.90
27224;DHT22;14965;50.660;13.226;2022-08-20T15:04:16;17.40;99.90
27224;DHT22;14965;50.660;13.226;2022-08-20T15:06:41;17.50;99.90
27224;DHT22;14965;50.660;13.226;2022-08-20T15:09:07;17.50;99.90
27224;DHT22;14965;50.660;13.226;2022-08-20T15:11:33;17.40;99.90
27224;DHT22;14965;50.660;13.226;2022-08-20T15:13:59;17.40;99.90
27224;DHT22;14965;50.660;13.226;2022-08-20T15:16:25;17.40;99.90